Time;durP1;ratioP1;P1;durP2;ratioP2;P2;SDS_P1;SDS_P2;PMS_P1;PMS_P2;Temp;Humidity;BMP_temperature;BMP_pressure;BME280_temperature;BME280_humidity;BME280_pressure;Samples;Min_cycle;Max_cycle;Signal;HPM_P1;HPM_P2
2021/05/06 00:34:26;;;;;;;;;;;435.40;1382.40;;;;;;4952720;29;20380;-67
2021/05/06 00:36:51;;;;;;;;;;;435.50;1408.00;;;;;;4965323;28;19906;-66
2021/05/06 00:39:22;;;;;;;;;;;;;;;;;;4971818;28;19914;-66
2021/05/06 01:08:32;;;;;;;;;;;384.90;1740.80;;;;;;5012755;28;19995;-66
2021/05/06 01:13:30;;;;;;;;;;;384.80;2048.00;;;;;;4982501;28;19960;-66
2021/05/06 01:15:56;;;;;;;;;;;;;;;;;;5012655;28;19975;-66
2021/05/06 01:18:22;;;;;;;;;;;;;;;;;;5013361;28;20367;-66
2021/05/06 01:20:51;;;;;;;;;;;;;;;;;;5024813;28;20000;-72
2021/05/06 01:23:17;;;;;;;;;;;;;;;;;;5016172;28;19917;-67
2021/05/06 01:25:50;;;;;;;;;;;;;;;;;;5008121;28;19962;-68
2021/05/06 01:28:19;;;;;;;;;;;;;;;;;;5019378;28;20363;-68
2021/05/06 01:30:49;;;;;;;;;;;;;;;;;;5016021;28;20364;-67
2021/05/06 01:33:28;;;;;;;;;;;;;;;;;;5016086;28;19905;-68
2021/05/06 01:35:58;;;;;;;;;;;;;;;;;;5015973;28;19920;-67
2021/05/06 01:42:00;;;;;;;;;;;;;;;;;;5015953;28;20268;-69
2021/05/06 01:44:16;;;;;;;;;;;;;;;;;;5001574;28;20011;-68
2021/05/06 01:59:51;;;;;;;;;;;;;;;;;;5015694;28;20005;-68
2021/05/06 02:02:17;;;;;;;;;;;;;;;;;;5010291;28;19947;-69
2021/05/06 02:04:42;;;;;;;;;;;;;;;;;;5016757;28;19944;-68
2021/05/06 02:07:08;;;;;;;;;;;;;;;;;;5015546;28;19913;-68
2021/05/06 02:09:34;;;;;;;;;;;409.90;1689.60;;;;;;5015189;28;19936;-67
2021/05/06 02:12:00;;;;;;;;;;;409.90;1715.20;;;;;;5015438;28;20029;-67
2021/05/06 02:14:26;;;;;;;;;;;409.80;1689.60;;;;;;5015294;28;20392;-67
2021/05/06 02:16:51;;;;;;;;;;;409.70;1715.20;;;;;;5015183;28;20351;-67
2021/05/06 02:19:26;;;;;;;;;;;409.70;1715.20;;;;;;5015317;28;19913;-70
2021/05/06 02:21:52;;;;;;;;;;;409.60;1715.20;;;;;;5015189;28;19924;-66
2021/05/06 02:24:17;;;;;;;;;;;409.60;1715.20;;;;;;5015131;28;19909;-66
2021/05/06 02:26:43;;;;;;;;;;;409.60;1689.60;;;;;;5014957;28;19912;-66
2021/05/06 02:29:08;;;;;;;;;;;409.60;1664.00;;;;;;5015090;28;20000;-68
2021/05/06 02:31:34;;;;;;;;;;;384.90;1664.00;;;;;;5013848;28;19913;-67
2021/05/06 02:33:59;;;;;;;;;;;409.60;1689.60;;;;;;5014951;28;19905;-67
2021/05/06 02:36:25;;;;;;;;;;;409.70;1664.00;;;;;;5014890;28;19912;-67
2021/05/06 02:38:51;;;;;;;;;;;409.60;1689.60;;;;;;5014672;28;19909;-67
2021/05/06 02:41:16;;;;;;;;;;;409.70;1689.60;;;;;;5014832;28;19932;-67
2021/05/06 02:43:42;;;;;;;;;;;409.80;1689.60;;;;;;5014820;28;19992;-66
2021/05/06 02:46:07;;;;;;;;;;;410.00;1664.00;;;;;;5014612;28;20056;-67
2021/05/06 02:48:33;;;;;;;;;;;410.00;1664.00;;;;;;5015186;28;19905;-67
2021/05/06 02:51:01;;;;;;;;;;;409.90;1638.40;;;;;;5014740;28;20452;-67
2021/05/06 02:53:36;;;;;;;;;;;409.80;1664.00;;;;;;5014830;28;19928;-64
2021/05/06 03:04:05;;;;;;;;;;;409.90;1664.00;;;;;;5014712;28;19963;-65
2021/05/06 03:06:35;;;;;;;;;;;409.80;1664.00;;;;;;4996577;28;19909;-65
2021/05/06 03:09:10;;;;;;;;;;;409.60;1689.60;;;;;;5014308;28;19909;-65
2021/05/06 03:11:46;;;;;;;;;;;409.70;1689.60;;;;;;5014052;28;19906;-64
2021/05/06 03:25:10;;;;;;;;;;;;;;;;;;5014207;28;19912;-65
2021/05/06 03:27:43;;;;;;;;;;;;;;;;;;5013946;28;19912;-65
2021/05/06 03:30:34;;;;;;;;;;;;;;;;;;5013920;28;19995;-65
2021/05/06 04:14:47;;;;;;;;;;;384.20;1689.60;;;;;;4933812;29;19973;-67
2021/05/06 04:22:12;;;;;;;;;;;359.30;1792.00;;;;;;5012939;28;19917;-71
2021/05/06 04:27:34;;;;;;;;;;;384.60;1689.60;;;;;;5013023;28;20023;-66
2021/05/06 04:35:38;;;;;;;;;;;384.30;1664.00;;;;;;5013016;28;20371;-66
2021/05/06 04:38:07;;;;;;;;;;;384.60;1638.40;;;;;;5011605;28;19905;-66
2021/05/06 04:43:58;;;;;;;;;;;409.70;1612.80;;;;;;5013388;28;19952;-67
2021/05/06 05:04:42;;;;;;;;;;;384.60;1587.20;;;;;;5016542;28;20283;-67
2021/05/06 05:17:44;;;;;;;;;;;384.60;1587.20;;;;;;4936693;29;20009;-67
2021/05/06 05:27:54;;;;;;;;;;;384.60;1612.80;;;;;;4917232;29;20290;-68
2021/05/06 05:30:23;;;;;;;;;;;384.90;1587.20;;;;;;4917111;29;19926;-66
2021/05/06 05:32:49;;;;;;;;;;;409.60;1561.60;;;;;;4917234;29;19907;-69
2021/05/06 05:37:54;;;;;;;;;;;410.00;1536.00;;;;;;4917279;29;19907;-72
2021/05/06 05:45:52;;;;;;;;;;;410.10;1459.20;;;;;;4917159;29;19914;-67
2021/05/06 05:49:02;;;;;;;;;;;;;;;;;;4989759;28;19912;-79
2021/05/06 05:56:29;;;;;;;;;;;410.50;1382.40;;;;;;4995982;28;20001;-70
2021/05/06 05:58:55;;;;;;;;;;;410.30;1382.40;;;;;;4995729;28;20024;-67
2021/05/06 06:01:23;;;;;;;;;;;410.30;1382.40;;;;;;4996066;28;19913;-74
2021/05/06 06:03:48;;;;;;;;;;;410.40;1382.40;;;;;;4995668;28;19927;-76
2021/05/06 06:06:14;;;;;;;;;;;435.30;1587.20;;;;;;4995568;28;20419;-74
2021/05/06 06:08:39;;;;;;;;;;;435.20;1382.40;;;;;;4995872;28;20249;-75
2021/05/06 06:11:05;;;;;;;;;;;435.20;1382.40;;;;;;4995479;28;19918;-79
2021/05/06 06:13:31;;;;;;;;;;;;;;;;;;4995612;28;19910;-78
2021/05/06 06:18:53;;;;;;;;;;;;;;;;;;4995415;28;19963;-71
2021/05/06 06:23:41;;;;;;;;;;;;;;;;;;5015089;28;19913;-68
2021/05/06 06:26:07;;;;;;;;;;;;;;;;;;5010141;28;19905;-68
2021/05/06 06:28:41;;;;;;;;;;;;;;;;;;5015539;28;19929;-70
2021/05/06 06:31:14;;;;;;;;;;;;;;;;;;5014789;28;20336;-67
2021/05/06 06:33:40;;;;;;;;;;;;;;;;;;5014572;28;19905;-67
2021/05/06 06:36:06;;;;;;;;;;;;;;;;;;5014396;28;20379;-68
2021/05/06 06:38:32;;;;;;;;;;;;;;;;;;5014463;28;19949;-67
2021/05/06 06:40:58;;;;;;;;;;;;;;;;;;5014412;28;20376;-69
2021/05/06 06:43:24;;;;;;;;;;;;;;;;;;5007969;28;20347;-68
2021/05/06 06:45:50;;;;;;;;;;;;;;;;;;5017034;28;19906;-67
2021/05/06 06:48:17;;;;;;;;;;;;;;;;;;5014458;28;19909;-68
2021/05/06 06:50:43;;;;;;;;;;;;;;;;;;5014164;28;19917;-68
2021/05/06 06:53:12;;;;;;;;;;;;;;;;;;5014444;28;20262;-69
2021/05/06 06:55:38;;;;;;;;;;;;;;;;;;5010485;28;19913;-68
2021/05/06 06:58:04;;;;;;;;;;;;;;;;;;5000396;28;19906;-69
2021/05/06 07:00:30;;;;;;;;;;;;;;;;;;5014118;28;20279;-69
2021/05/06 07:02:56;;;;;;;;;;;;;;;;;;5014056;28;19912;-69
2021/05/06 07:05:22;;;;;;;;;;;;;;;;;;5014369;28;19909;-69
2021/05/06 07:07:48;;;;;;;;;;;;;;;;;;5014090;28;19917;-76
2021/05/06 07:10:13;;;;;;;;;;;;;;;;;;5014005;28;20232;-75
2021/05/06 07:12:39;;;;;;;;;;;;;;;;;;5014017;28;20351;-70
2021/05/06 07:15:05;;;;;;;;;;;;;;;;;;5014105;28;19912;-69
2021/05/06 07:17:31;;;;;;;;;;;;;;;;;;5013818;28;20464;-79
2021/05/06 07:19:57;;;;;;;;;;;;;;;;;;5014026;28;19956;-68
2021/05/06 07:22:23;;;;;;;;;;;;;;;;;;5013817;28;19943;-75
2021/05/06 07:24:49;;;;;;;;;;;;;;;;;;5013959;28;19909;-68
2021/05/06 07:27:15;;;;;;;;;;;;;;;;;;5004023;28;19905;-70
2021/05/06 07:29:41;;;;;;;;;;;;;;;;;;5019347;28;19917;-69
2021/05/06 07:32:07;;;;;;;;;;;;;;;;;;5013544;28;19929;-75
2021/05/06 07:34:33;;;;;;;;;;;;;;;;;;5013528;28;19962;-68
2021/05/06 07:36:59;;;;;;;;;;;;;;;;;;5013351;28;19905;-79
2021/05/06 07:39:25;;;;;;;;;;;;;;;;;;5013288;28;20422;-68
2021/05/06 07:41:51;;;;;;;;;;;;;;;;;;5013505;28;20000;-69
2021/05/06 07:44:16;;;;;;;;;;;;;;;;;;5013199;28;20384;-68
2021/05/06 07:46:42;;;;;;;;;;;;;;;;;;5013052;28;19947;-68
2021/05/06 07:49:08;;;;;;;;;;;;;;;;;;5013211;28;19957;-68
2021/05/06 07:51:34;;;;;;;;;;;;;;;;;;5013062;28;19957;-77
2021/05/06 07:54:07;;;;;;;;;;;;;;;;;;5013213;28;19948;-74
2021/05/06 07:56:32;;;;;;;;;;;461.70;1049.60;;;;;;5013158;28;19905;-67
2021/05/06 07:58:58;;;;;;;;;;;461.60;1126.40;;;;;;5012996;28;19912;-71
2021/05/06 08:01:24;;;;;;;;;;;461.60;1024.00;;;;;;5012982;28;19951;-68
2021/05/06 08:03:52;;;;;;;;;;;461.60;1049.60;;;;;;5013338;28;20260;-75
2021/05/06 08:06:19;;;;;;;;;;;461.50;1075.20;;;;;;5012704;28;19905;-70
2021/05/06 08:08:45;;;;;;;;;;;;;;;;;;5015237;28;19905;-69
2021/05/06 08:11:11;;;;;;;;;;;;;;;;;;5016729;28;19917;-76
2021/05/06 08:13:37;;;;;;;;;;;;;;;;;;5013203;28;20452;-69
2021/05/06 08:16:03;;;;;;;;;;;;;;;;;;5012903;28;19910;-70
2021/05/06 08:18:29;;;;;;;;;;;;;;;;;;5013167;28;19905;-72
2021/05/06 08:20:55;;;;;;;;;;;;;;;;;;5012690;28;20536;-68
2021/05/06 08:23:21;;;;;;;;;;;;;;;;;;5012891;28;20012;-69
2021/05/06 08:25:47;;;;;;;;;;;;;;;;;;5013227;28;20000;-69
2021/05/06 08:28:13;;;;;;;;;;;;;;;;;;5012641;28;20008;-68
2021/05/06 08:30:39;;;;;;;;;;;;;;;;;;5012251;28;20297;-77
2021/05/06 08:33:05;;;;;;;;;;;;;;;;;;5012717;28;19999;-68
2021/05/06 08:35:31;;;;;;;;;;;512.70;1100.80;;;;;;5012779;28;19985;-69
2021/05/06 08:37:56;;;;;;;;;;;512.70;921.60;;;;;;5012806;28;19912;-69
2021/05/06 08:40:22;;;;;;;;;;;512.70;921.60;;;;;;5012630;28;19905;-68
2021/05/06 08:42:51;;;;;;;;;;;512.80;896.00;;;;;;5012488;28;20280;-69
2021/05/06 08:45:17;;;;;;;;;;;512.90;896.00;;;;;;5007194;28;19951;-68
2021/05/06 08:47:44;;;;;;;;;;;512.90;870.40;;;;;;5013729;28;19905;-68
2021/05/06 08:50:09;;;;;;;;;;;512.90;870.40;;;;;;5012556;28;19960;-68
2021/05/06 08:52:35;;;;;;;;;;;512.90;896.00;;;;;;5012601;28;20422;-68
2021/05/06 08:55:01;;;;;;;;;;;537.60;921.60;;;;;;5012552;28;19917;-68
2021/05/06 08:57:27;;;;;;;;;;;;;;;;;;5012332;28;19951;-68
2021/05/06 08:59:53;;;;;;;;;;;;;;;;;;5012532;28;20007;-68
2021/05/06 09:02:19;;;;;;;;;;;;;;;;;;5007510;28;19905;-70
2021/05/06 09:04:45;;;;;;;;;;;;;;;;;;5013491;28;19905;-68
2021/05/06 09:07:11;;;;;;;;;;;;;;;;;;5012450;28;19996;-72
2021/05/06 09:09:37;;;;;;;;;;;;;;;;;;5012231;28;19914;-72
2021/05/06 09:12:03;;;;;;;;;;;;;;;;;;5012340;28;19906;-73
2021/05/06 09:14:29;;;;;;;;;;;;;;;;;;5012244;28;20279;-74
2021/05/06 09:16:55;;;;;;;;;;;;;;;;;;5012432;28;19905;-70
2021/05/06 09:19:21;;;;;;;;;;;;;;;;;;5012322;28;19968;-70
2021/05/06 09:21:47;;;;;;;;;;;;;;;;;;5012037;28;19992;-67
2021/05/06 09:24:13;;;;;;;;;;;;;;;;;;5012226;28;20360;-68
2021/05/06 09:26:39;;;;;;;;;;;;;;;;;;5012472;28;19924;-70
2021/05/06 09:29:05;;;;;;;;;;;;;;;;;;5012028;28;19905;-67
2021/05/06 09:31:31;;;;;;;;;;;;;;;;;;5012055;28;19917;-68
2021/05/06 09:33:57;;;;;;;;;;;;;;;;;;5012248;28;19909;-67
2021/05/06 09:36:26;;;;;;;;;;;;;;;;;;5012150;28;20467;-68
2021/05/06 09:38:52;;;;;;;;;;;;;;;;;;5012391;28;19917;-68
2021/05/06 09:41:18;;;;;;;;;;;;;;;;;;5014710;28;19939;-70
2021/05/06 09:43:44;;;;;;;;;;;;;;;;;;5015717;28;19909;-68
2021/05/06 09:46:10;;;;;;;;;;;;;;;;;;5015572;28;20000;-69
2021/05/06 09:48:36;;;;;;;;;;;;;;;;;;5015411;28;19906;-68
2021/05/06 09:51:03;;;;;;;;;;;;;;;;;;5015184;28;19921;-68
2021/05/06 09:53:31;;;;;;;;;;;;;;;;;;5015438;28;19916;-69
2021/05/06 09:55:57;;;;;;;;;;;;;;;;;;5015235;28;19912;-68
2021/05/06 09:58:23;;;;;;;;;;;;;;;;;;5015268;28;20338;-68
2021/05/06 10:00:49;;;;;;;;;;;;;;;;;;5015179;28;19906;-72
2021/05/06 10:03:15;;;;;;;;;;;;;;;;;;5015110;28;20344;-69
2021/05/06 10:05:41;;;;;;;;;;;;;;;;;;5015113;28;19995;-70
2021/05/06 10:08:07;;;;;;;;;;;;;;;;;;5015120;28;19947;-69
2021/05/06 10:10:34;;;;;;;;;;;;;;;;;;5014854;28;19920;-68
2021/05/06 10:13:01;;;;;;;;;;;;;;;;;;5014932;28;20032;-69
2021/05/06 10:15:28;;;;;;;;;;;;;;;;;;5014935;28;19948;-68
2021/05/06 10:17:55;;;;;;;;;;;;;;;;;;5014818;28;19932;-67
2021/05/06 10:20:23;;;;;;;;;;;;;;;;;;5014893;28;19944;-68
2021/05/06 10:22:49;;;;;;;;;;;;;;;;;;5014658;28;19932;-68
2021/05/06 10:25:15;;;;;;;;;;;;;;;;;;5014864;28;20264;-68
2021/05/06 10:27:41;;;;;;;;;;;;;;;;;;5015262;28;20106;-68
2021/05/06 10:30:07;;;;;;;;;;;;;;;;;;5014172;28;20363;-68
2021/05/06 10:32:33;;;;;;;;;;;;;;;;;;5014423;28;19906;-68
2021/05/06 10:34:59;;;;;;;;;;;;;;;;;;5014494;28;20011;-68
2021/05/06 10:37:25;;;;;;;;;;;;;;;;;;5014403;28;19913;-68
2021/05/06 10:39:51;;;;;;;;;;;;;;;;;;5014476;28;19905;-68
2021/05/06 10:42:17;;;;;;;;;;;;;;;;;;5014393;28;19912;-68
2021/05/06 10:44:42;;;;;;;;;;;588.80;819.20;;;;;;5014379;28;20287;-68
2021/05/06 10:47:12;;;;;;;;;;;589.00;819.20;;;;;;5014676;28;19906;-69
2021/05/06 10:49:38;;;;;;;;;;;589.00;844.80;;;;;;5014179;28;19920;-69
2021/05/06 10:52:04;;;;;;;;;;;;;;;;;;5013479;28;19909;-70
2021/05/06 10:54:30;;;;;;;;;;;;;;;;;;5014136;28;19949;-69
2021/05/06 10:56:56;;;;;;;;;;;;;;;;;;5014352;28;20279;-68
2021/05/06 10:59:22;;;;;;;;;;;;;;;;;;5014320;28;19916;-76
2021/05/06 11:01:48;;;;;;;;;;;;;;;;;;5014378;28;20278;-78
2021/05/06 11:04:14;;;;;;;;;;;;;;;;;;5014140;28;19906;-69
2021/05/06 11:06:40;;;;;;;;;;;;;;;;;;5014220;28;19928;-69
2021/05/06 11:09:06;;;;;;;;;;;;;;;;;;5014016;28;20276;-69
2021/05/06 11:11:31;;;;;;;;;;;;;;;;;;5013892;28;19917;-69
2021/05/06 11:13:57;;;;;;;;;;;;;;;;;;5014000;28;19911;-68
2021/05/06 11:16:23;;;;;;;;;;;;;;;;;;5013791;28;19920;-69
2021/05/06 11:18:51;;;;;;;;;;;;;;;;;;5014268;28;19912;-68
2021/05/06 11:21:17;;;;;;;;;;;;;;;;;;5013591;28;19963;-69
2021/05/06 11:23:43;;;;;;;;;;;;;;;;;;5013786;28;19948;-68
2021/05/06 11:26:08;;;;;;;;;;;;;;;;;;5013876;28;19947;-71
2021/05/06 11:28:34;;;;;;;;;;;;;;;;;;5013459;28;19948;-70
2021/05/06 11:31:00;;;;;;;;;;;;;;;;;;5013625;28;19913;-71
2021/05/06 11:33:27;;;;;;;;;;;;;;;;;;5013359;28;19905;-68
2021/05/06 11:35:54;;;;;;;;;;;;;;;;;;5013359;28;19917;-71
2021/05/06 11:38:20;;;;;;;;;;;;;;;;;;5013583;28;19905;-69
2021/05/06 11:40:46;;;;;;;;;;;;;;;;;;5013348;28;20210;-68
2021/05/06 11:43:12;;;;;;;;;;;;;;;;;;5013451;28;19996;-68
2021/05/06 11:45:38;;;;;;;;;;;;;;;;;;5013132;28;19906;-70
2021/05/06 11:48:04;;;;;;;;;;;;;;;;;;5013082;28;19912;-68
2021/05/06 11:50:31;;;;;;;;;;;;;;;;;;5013207;28;19921;-68
2021/05/06 11:52:58;;;;;;;;;;;;;;;;;;5013162;28;19932;-68
2021/05/06 11:55:24;;;;;;;;;;;;;;;;;;5013070;28;20000;-68
2021/05/06 11:57:50;;;;;;;;;;;;;;;;;;5013111;28;19944;-68
2021/05/06 12:00:16;;;;;;;;;;;;;;;;;;5013025;28;19953;-68
2021/05/06 12:02:42;;;;;;;;;;;;;;;;;;5012949;28;19960;-68
2021/05/06 12:05:08;;;;;;;;;;;;;;;;;;5012963;28;20402;-69
2021/05/06 12:07:34;;;;;;;;;;;;;;;;;;5012722;28;19905;-68
2021/05/06 12:10:00;;;;;;;;;;;;;;;;;;5012990;28;19920;-68
2021/05/06 12:12:26;;;;;;;;;;;;;;;;;;5012922;28;19906;-68
2021/05/06 12:14:52;;;;;;;;;;;;;;;;;;5012711;28;19905;-68
2021/05/06 12:17:19;;;;;;;;;;;;;;;;;;5012903;28;20075;-68
2021/05/06 12:19:45;;;;;;;;;;;;;;;;;;5012370;28;19917;-68
2021/05/06 12:22:11;;;;;;;;;;;;;;;;;;5012644;28;20117;-69
2021/05/06 12:24:37;;;;;;;;;;;;;;;;;;5012639;28;19992;-69
2021/05/06 12:27:03;;;;;;;;;;;;;;;;;;5012781;28;19948;-70
2021/05/06 12:29:29;;;;;;;;;;;;;;;;;;5012577;28;19916;-71
2021/05/06 12:31:55;;;;;;;;;;;;;;;;;;5012847;28;20275;-69
2021/05/06 12:34:21;;;;;;;;;;;;;;;;;;5013143;28;19960;-67
2021/05/06 12:36:47;;;;;;;;;;;;;;;;;;5012543;28;19912;-68
2021/05/06 12:39:13;;;;;;;;;;;;;;;;;;5012834;28;20307;-69
2021/05/06 12:41:39;;;;;;;;;;;;;;;;;;5012604;28;19906;-68
2021/05/06 12:44:04;;;;;;;;;;;;;;;;;;5015292;28;20927;-69
2021/05/06 12:46:31;;;;;;;;;;;;;;;;;;5023802;28;19905;-68
2021/05/06 12:48:57;;;;;;;;;;;;;;;;;;5012553;28;19948;-68
2021/05/06 12:51:23;;;;;;;;;;;;;;;;;;5012664;28;19964;-68
2021/05/06 12:53:49;;;;;;;;;;;;;;;;;;5012553;28;19948;-71
2021/05/06 12:56:15;;;;;;;;;;;;;;;;;;5012447;28;20268;-67
2021/05/06 12:58:41;;;;;;;;;;;;;;;;;;5012499;28;19906;-67
2021/05/06 13:01:13;;;;;;;;;;;;;;;;;;5012200;28;19924;-67
2021/05/06 13:03:41;;;;;;;;;;;;;;;;;;5012499;28;20356;-68
2021/05/06 13:06:07;;;;;;;;;;;;;;;;;;5012239;28;19909;-68
2021/05/06 13:08:33;;;;;;;;;;;;;;;;;;5012533;28;20307;-67
2021/05/06 13:10:59;;;;;;;;;;;;;;;;;;5012186;28;20379;-68
2021/05/06 13:13:24;;;;;;;;;;;;;;;;;;5012381;28;19905;-68
2021/05/06 13:15:50;;;;;;;;;;;;;;;;;;5014321;28;19912;-69
2021/05/06 13:18:16;;;;;;;;;;;;;;;;;;5015859;28;19996;-68
2021/05/06 13:20:42;;;;;;;;;;;;;;;;;;5015735;28;19909;-68
2021/05/06 13:23:08;;;;;;;;;;;;;;;;;;5015841;28;19947;-70
2021/05/06 13:25:34;;;;;;;;;;;;;;;;;;5015966;28;19906;-71
2021/05/06 13:28:00;;;;;;;;;;;;;;;;;;5015745;28;19953;-68
2021/05/06 13:30:26;;;;;;;;;;;;;;;;;;5015740;28;19917;-69
2021/05/06 13:32:52;;;;;;;;;;;;;;;;;;5015686;28;20275;-67
2021/05/06 13:35:18;;;;;;;;;;;;;;;;;;5015807;28;19905;-68
2021/05/06 13:37:44;;;;;;;;;;;;;;;;;;5015830;28;19944;-67
2021/05/06 13:40:10;;;;;;;;;;;;;;;;;;5015491;28;19906;-68
2021/05/06 13:42:36;;;;;;;;;;;;;;;;;;5013419;28;20279;-68
2021/05/06 13:45:03;;;;;;;;;;;;;;;;;;4995504;28;19932;-68
2021/05/06 13:47:29;;;;;;;;;;;;;;;;;;5005765;28;19920;-69
2021/05/06 13:49:55;;;;;;;;;;;;;;;;;;5014885;28;19925;-76
2021/05/06 13:52:24;;;;;;;;;;;;;;;;;;5014566;28;20279;-76
2021/05/06 13:54:50;;;;;;;;;;;;;;;;;;5009351;28;19910;-68
2021/05/06 13:57:16;;;;;;;;;;;;;;;;;;5009311;28;20338;-70
2021/05/06 13:59:42;;;;;;;;;;;;;;;;;;5003775;28;20013;-68
2021/05/06 14:02:08;;;;;;;;;;;;;;;;;;5009000;28;19959;-68
2021/05/06 14:04:35;;;;;;;;;;;;;;;;;;5005631;28;20387;-70
2021/05/06 14:07:01;;;;;;;;;;;;;;;;;;5007110;28;19917;-68
2021/05/06 14:09:26;;;;;;;;;;;;;;;;;;5012948;28;19910;-76
2021/05/06 14:11:52;;;;;;;;;;;;;;;;;;5005345;28;19917;-72
2021/05/06 14:14:18;;;;;;;;;;;;;;;;;;5008882;28;19952;-67
2021/05/06 14:16:44;;;;;;;;;;;;;;;;;;5003413;28;20012;-66
2021/05/06 14:19:12;;;;;;;;;;;;;;;;;;5009111;28;20466;-66
2021/05/06 14:21:38;;;;;;;;;;;;;;;;;;5002009;28;19965;-67
2021/05/06 14:24:04;;;;;;;;;;;;;;;;;;4982623;28;20368;-66
2021/05/06 14:26:30;;;;;;;;;;;;;;;;;;4984057;28;19913;-66
2021/05/06 14:28:56;;;;;;;;;;;;;;;;;;5006452;28;19909;-69
2021/05/06 14:31:22;;;;;;;;;;;;;;;;;;5010939;28;20284;-71
2021/05/06 14:33:48;;;;;;;;;;;;;;;;;;5011080;28;19906;-69
2021/05/06 14:36:14;;;;;;;;;;;;;;;;;;5011100;28;19913;-79
2021/05/06 14:38:40;;;;;;;;;;;;;;;;;;5007329;28;19906;-68
2021/05/06 14:41:06;;;;;;;;;;;;;;;;;;5009498;28;19945;-78
2021/05/06 14:43:32;;;;;;;;;;;;;;;;;;5010719;28;20362;-67
2021/05/06 14:45:58;;;;;;;;;;;;;;;;;;4994757;28;20360;-69
2021/05/06 14:48:24;;;;;;;;;;;;;;;;;;5013102;28;19905;-68
2021/05/06 14:50:50;;;;;;;;;;;;;;;;;;5003575;28;20315;-69
2021/05/06 14:53:16;;;;;;;;;;;;;;;;;;5008996;28;19913;-76
2021/05/06 14:55:41;;;;;;;;;;;;;;;;;;5008698;28;19929;-73
2021/05/06 14:58:07;;;;;;;;;;;;;;;;;;4990296;28;20529;-68
2021/05/06 15:00:33;;;;;;;;;;;;;;;;;;5010905;28;19905;-69
2021/05/06 15:02:59;;;;;;;;;;;;;;;;;;4984337;28;19906;-70
2021/05/06 15:05:26;;;;;;;;;;;;;;;;;;4994711;28;19925;-68
2021/05/06 15:07:52;;;;;;;;;;;;;;;;;;4982587;28;19916;-68
2021/05/06 15:10:18;;;;;;;;;;;;;;;;;;4976197;28;19914;-66
2021/05/06 15:12:44;;;;;;;;;;;;;;;;;;4977818;28;19910;-68
2021/05/06 15:15:10;;;;;;;;;;;;;;;;;;4976169;28;19910;-67
2021/05/06 15:17:36;;;;;;;;;;;;;;;;;;4976632;28;20000;-68
2021/05/06 15:20:01;;;;;;;;;;;;;;;;;;4977043;28;20009;-68
2021/05/06 15:22:28;;;;;;;;;;;;;;;;;;4990526;28;19922;-66
2021/05/06 15:24:54;;;;;;;;;;;;;;;;;;4997121;28;20384;-67
2021/05/06 15:27:20;;;;;;;;;;;;;;;;;;4995319;28;19913;-67
2021/05/06 15:29:46;;;;;;;;;;;;;;;;;;4997105;28;20340;-67
2021/05/06 15:32:12;;;;;;;;;;;;;;;;;;4995521;28;19909;-68
2021/05/06 15:34:38;;;;;;;;;;;;;;;;;;4996273;28;19906;-68
2021/05/06 15:37:03;;;;;;;;;;;;;;;;;;5011419;28;20285;-67
2021/05/06 15:39:29;;;;;;;;;;;;;;;;;;5017071;28;19909;-68
2021/05/06 15:41:55;;;;;;;;;;;;;;;;;;5005288;28;19910;-67
2021/05/06 15:44:21;;;;;;;;;;;;;;;;;;5004752;28;20499;-70
2021/05/06 15:46:47;;;;;;;;;;;;;;;;;;5002404;28;20375;-68
2021/05/06 15:49:13;;;;;;;;;;;;;;;;;;5009654;28;19906;-67
2021/05/06 15:51:39;;;;;;;;;;;;;;;;;;5005102;28;20004;-68
2021/05/06 15:54:06;;;;;;;;;;;589.10;972.80;;;;;;5000399;28;19920;-68
2021/05/06 15:56:32;;;;;;;;;;;589.00;972.80;;;;;;4995918;28;19917;-67
2021/05/06 15:59:00;;;;;;;;;;;589.00;921.60;;;;;;4997725;28;19906;-67
2021/05/06 16:01:26;;;;;;;;;;;588.80;947.20;;;;;;4995521;28;19905;-68
2021/05/06 16:03:59;;;;;;;;;;;564.10;998.40;;;;;;4996079;28;19910;-68
2021/05/06 16:06:25;;;;;;;;;;;;;;;;;;5007828;28;19916;-68
2021/05/06 16:08:51;;;;;;;;;;;;;;;;;;4998247;28;19906;-68
2021/05/06 16:11:17;;;;;;;;;;;;;;;;;;5000654;28;20598;-67
2021/05/06 16:13:43;;;;;;;;;;;;;;;;;;5003536;28;20334;-67
2021/05/06 16:16:09;;;;;;;;;;;;;;;;;;4998525;28;19928;-68
2021/05/06 16:18:39;;;;;;;;;;;;;;;;;;5002846;28;20525;-67
2021/05/06 16:21:05;;;;;;;;;;;;;;;;;;4996797;28;19910;-68
2021/05/06 16:23:31;;;;;;;;;;;;;;;;;;5012264;28;19915;-68
2021/05/06 16:25:57;;;;;;;;;;;;;;;;;;5000847;28;20356;-67
2021/05/06 16:28:23;;;;;;;;;;;;;;;;;;4997495;28;19913;-68
2021/05/06 16:30:49;;;;;;;;;;;;;;;;;;4995026;28;19930;-67
2021/05/06 16:33:15;;;;;;;;;;;;;;;;;;4997654;28;19905;-68
2021/05/06 16:35:51;;;;;;;;;;;;;;;;;;5002810;28;19917;-69
2021/05/06 16:38:18;;;;;;;;;;;;;;;;;;5012269;28;19995;-68
2021/05/06 16:40:50;;;;;;;;;;;;;;;;;;5012091;28;19996;-68
2021/05/06 16:45:54;;;;;;;;;;;;;;;;;;5011307;28;19941;-68
2021/05/06 16:48:19;;;;;;;;;;;;;;;;;;5014471;28;19906;-68
2021/05/06 16:50:45;;;;;;;;;;;;;;;;;;5004249;28;19917;-68
2021/05/06 16:53:11;;;;;;;;;;;;;;;;;;5002565;28;20271;-68
2021/05/06 16:55:37;;;;;;;;;;;;;;;;;;5016010;28;20020;-67
2021/05/06 16:58:04;;;;;;;;;;;;;;;;;;5002555;28;19941;-68
2021/05/06 17:00:32;;;;;;;;;;;;;;;;;;5017112;28;19916;-69
2021/05/06 17:02:58;;;;;;;;;;;;;;;;;;5002381;28;19916;-69
2021/05/06 17:05:24;;;;;;;;;;;;;;;;;;4981505;28;19905;-69
2021/05/06 17:07:50;;;;;;;;;;;;;;;;;;5023199;28;19916;-68
2021/05/06 17:10:16;;;;;;;;;;;538.50;1024.00;;;;;;5003161;28;19996;-67
2021/05/06 17:12:42;;;;;;;;;;;538.50;1024.00;;;;;;5007645;28;20355;-67
2021/05/06 17:15:08;;;;;;;;;;;538.40;1024.00;;;;;;5008959;28;19993;-68
2021/05/06 17:17:33;;;;;;;;;;;;;;;;;;5026435;28;20322;-66
2021/05/06 17:19:59;;;;;;;;;;;;;;;;;;5003756;28;19960;-67
2021/05/06 17:22:25;;;;;;;;;;;;;;;;;;4987439;28;19977;-66
2021/05/06 17:24:51;;;;;;;;;;;;;;;;;;4984599;28;20293;-66
2021/05/06 17:27:17;;;;;;;;;;;;;;;;;;4981482;28;19906;-68
2021/05/06 17:29:43;;;;;;;;;;;;;;;;;;4985944;28;19910;-66
2021/05/06 17:32:09;;;;;;;;;;;;;;;;;;5008208;28;20328;-68
2021/05/06 17:34:35;;;;;;;;;;;;;;;;;;5013968;28;19905;-67
2021/05/06 17:37:01;;;;;;;;;;;;;;;;;;5011903;28;20391;-71
2021/05/06 17:39:27;;;;;;;;;;;;;;;;;;5011722;28;19920;-64
2021/05/06 17:41:53;;;;;;;;;;;;;;;;;;4995852;28;19906;-64
2021/05/06 17:44:19;;;;;;;;;;;;;;;;;;5002800;28;19905;-65
2021/05/06 17:46:45;;;;;;;;;;;;;;;;;;5014497;28;19912;-69
2021/05/06 17:49:11;;;;;;;;;;;538.00;1075.20;;;;;;4989997;28;19914;-66
2021/05/06 17:51:37;;;;;;;;;;;538.00;1075.20;;;;;;5010501;28;20323;-65
2021/05/06 17:54:03;;;;;;;;;;;537.90;1075.20;;;;;;5009295;28;19909;-65
2021/05/06 17:56:29;;;;;;;;;;;537.90;1100.80;;;;;;5011376;28;19906;-70
2021/05/06 17:58:54;;;;;;;;;;;537.80;1100.80;;;;;;5013004;28;19916;-67
2021/05/06 18:01:20;;;;;;;;;;;537.80;1100.80;;;;;;5004791;28;19910;-69
2021/05/06 18:03:46;;;;;;;;;;;537.70;1100.80;;;;;;4991164;28;19905;-68
2021/05/06 18:06:12;;;;;;;;;;;537.70;1100.80;;;;;;4986196;28;20039;-67
2021/05/06 18:08:56;;;;;;;;;;;537.70;1100.80;;;;;;4999063;28;19929;-68
2021/05/06 18:13:53;;;;;;;;;;;537.70;1100.80;;;;;;5003931;28;19920;-68
2021/05/06 18:16:19;;;;;;;;;;;537.60;1100.80;;;;;;4997721;28;20356;-70
2021/05/06 18:18:44;;;;;;;;;;;537.60;1126.40;;;;;;4986584;28;20000;-72
2021/05/06 18:21:10;;;;;;;;;;;537.60;1126.40;;;;;;4997662;28;19916;-70
2021/05/06 18:23:36;;;;;;;;;;;512.90;1126.40;;;;;;5013999;28;20496;-68
2021/05/06 18:26:02;;;;;;;;;;;;;;;;;;5014192;28;19920;-70
2021/05/06 18:28:28;;;;;;;;;;;;;;;;;;5013194;28;19988;-69
2021/05/06 18:30:54;;;;;;;;;;;;;;;;;;5013742;28;20059;-69
2021/05/06 18:33:20;;;;;;;;;;;;;;;;;;5013576;28;19955;-68
2021/05/06 18:35:45;;;;;;;;;;;;;;;;;;5026717;28;19905;-70
2021/05/06 18:38:12;;;;;;;;;;;;;;;;;;5031630;28;20635;-69
2021/05/06 18:40:38;;;;;;;;;;;487.20;1254.40;;;;;;5031119;28;20000;-69
2021/05/06 18:43:04;;;;;;;;;;;;;;;;;;5024835;28;20001;-71
2021/05/06 18:45:32;;;;;;;;;;;;;;;;;;5013257;28;20260;-73
2021/05/06 18:47:57;;;;;;;;;;;;;;;;;;5022880;28;19905;-65
2021/05/06 18:50:24;;;;;;;;;;;;;;;;;;5026983;28;19917;-67
2021/05/06 18:52:49;;;;;;;;;;;;;;;;;;5005500;28;19916;-67
2021/05/06 18:55:15;;;;;;;;;;;;;;;;;;5013549;28;19992;-67
2021/05/06 18:57:41;;;;;;;;;;;;;;;;;;5001699;28;20009;-68
2021/05/06 19:00:07;;;;;;;;;;;;;;;;;;4998390;28;20018;-67
2021/05/06 19:02:33;;;;;;;;;;;;;;;;;;5002323;28;20308;-67
2021/05/06 19:05:05;;;;;;;;;;;;;;;;;;4998218;28;19913;-67
2021/05/06 19:07:32;;;;;;;;;;;;;;;;;;4984654;28;19909;-66
2021/05/06 19:09:58;;;;;;;;;;;;;;;;;;5007537;28;19945;-67
2021/05/06 19:12:24;;;;;;;;;;;;;;;;;;4999862;28;19948;-67
2021/05/06 19:14:50;;;;;;;;;;;;;;;;;;4999567;28;19952;-67
2021/05/06 19:17:16;;;;;;;;;;;;;;;;;;4998518;28;20368;-68
2021/05/06 19:19:42;;;;;;;;;;;;;;;;;;5002039;28;19910;-68
2021/05/06 19:22:08;;;;;;;;;;;;;;;;;;4986716;28;19958;-67
2021/05/06 19:24:34;;;;;;;;;;;;;;;;;;4993633;28;19917;-68
2021/05/06 19:27:00;;;;;;;;;;;;;;;;;;4993036;28;19905;-69
2021/05/06 19:29:26;;;;;;;;;;;;;;;;;;4992009;28;19918;-69